sensor_id;sensor_type;location;lat;lon;timestamp;pressure;altitude;pressure_sealevel;temperature;humidity
8061;BME280;4073;42.626;25.386;2022-11-24T00:01:18;96166.75;;;11.02;100.00
8061;BME280;4073;42.626;25.386;2022-11-24T00:03:45;96170.50;;;10.88;100.00
8061;BME280;4073;42.626;25.386;2022-11-24T00:06:14;96169.03;;;10.95;100.00
8061;BME280;4073;42.626;25.386;2022-11-24T00:08:41;96171.59;;;11.00;100.00
8061;BME280;4073;42.626;25.386;2022-11-24T00:11:09;96160.41;;;10.98;100.00
8061;BME280;4073;42.626;25.386;2022-11-24T00:13:35;96160.22;;;10.81;100.00
8061;BME280;4073;42.626;25.386;2022-11-24T00:16:23;96159.22;;;10.91;100.00
8061;BME280;4073;42.626;25.386;2022-11-24T00:18:51;96161.09;;;10.90;100.00
8061;BME280;4073;42.626;25.386;2022-11-24T00:21:18;96162.69;;;10.91;100.00
8061;BME280;4073;42.626;25.386;2022-11-24T00:23:44;96157.25;;;10.83;100.00
8061;BME280;4073;42.626;25.386;2022-11-24T00:26:12;96154.66;;;10.78;100.00
8061;BME280;4073;42.626;25.386;2022-11-24T00:28:39;96126.50;;;10.53;100.00
8061;BME280;4073;42.626;25.386;2022-11-24T00:31:19;96159.72;;;10.66;100.00
8061;BME280;4073;42.626;25.386;2022-11-24T00:33:46;96141.38;;;10.45;100.00
8061;BME280;4073;42.626;25.386;2022-11-24T00:36:12;96159.19;;;10.50;100.00
8061;BME280;4073;42.626;25.386;2022-11-24T00:38:38;96162.94;;;10.49;100.00
8061;BME280;4073;42.626;25.386;2022-11-24T00:41:04;96167.28;;;10.45;100.00
8061;BME280;4073;42.626;25.386;2022-11-24T00:43:29;96160.44;;;10.39;100.00
8061;BME280;4073;42.626;25.386;2022-11-24T00:45:55;96161.34;;;10.34;100.00
8061;BME280;4073;42.626;25.386;2022-11-24T00:48:21;96162.41;;;10.33;100.00
8061;BME280;4073;42.626;25.386;2022-11-24T00:51:01;96132.69;;;10.08;100.00
8061;BME280;4073;42.626;25.386;2022-11-24T00:53:26;96165.19;;;10.28;100.00
8061;BME280;4073;42.626;25.386;2022-11-24T00:55:53;96154.81;;;10.27;100.00
8061;BME280;4073;42.626;25.386;2022-11-24T00:58:18;96140.81;;;10.16;100.00
8061;BME280;4073;42.626;25.386;2022-11-24T01:00:44;96164.31;;;10.33;100.00
8061;BME280;4073;42.626;25.386;2022-11-24T01:03:11;96163.50;;;10.32;100.00
8061;BME280;4073;42.626;25.386;2022-11-24T01:05:37;96148.81;;;10.16;100.00
8061;BME280;4073;42.626;25.386;2022-11-24T01:08:02;96166.78;;;10.29;100.00
8061;BME280;4073;42.626;25.386;2022-11-24T01:10:29;96170.53;;;10.28;100.00
8061;BME280;4073;42.626;25.386;2022-11-24T01:12:54;96132.63;;;10.13;100.00
8061;BME280;4073;42.626;25.386;2022-11-24T01:15:20;96160.72;;;10.24;100.00
8061;BME280;4073;42.626;25.386;2022-11-24T01:17:45;96162.19;;;10.16;100.00
8061;BME280;4073;42.626;25.386;2022-11-24T01:20:11;96162.59;;;10.05;100.00
8061;BME280;4073;42.626;25.386;2022-11-24T01:22:37;96164.66;;;9.94;100.00
8061;BME280;4073;42.626;25.386;2022-11-24T01:25:07;96169.66;;;9.82;100.00
8061;BME280;4073;42.626;25.386;2022-11-24T01:27:33;96170.50;;;9.78;100.00
8061;BME280;4073;42.626;25.386;2022-11-24T01:29:58;96158.34;;;9.53;100.00
8061;BME280;4073;42.626;25.386;2022-11-24T01:32:24;96155.16;;;9.51;100.00
8061;BME280;4073;42.626;25.386;2022-11-24T01:34:49;96156.97;;;9.56;100.00
8061;BME280;4073;42.626;25.386;2022-11-24T01:37:15;96168.41;;;9.75;100.00
8061;BME280;4073;42.626;25.386;2022-11-24T01:39:40;96148.69;;;9.57;100.00
8061;BME280;4073;42.626;25.386;2022-11-24T01:42:06;96176.94;;;9.77;100.00
8061;BME280;4073;42.626;25.386;2022-11-24T01:44:32;96171.19;;;9.70;100.00
8061;BME280;4073;42.626;25.386;2022-11-24T01:49:53;96138.66;;;9.49;100.00
8061;BME280;4073;42.626;25.386;2022-11-24T01:52:35;96164.91;;;9.61;100.00
8061;BME280;4073;42.626;25.386;2022-11-24T01:55:07;96168.50;;;9.51;100.00
8061;BME280;4073;42.626;25.386;2022-11-24T01:57:37;96149.91;;;9.28;100.00
8061;BME280;4073;42.626;25.386;2022-11-24T02:00:11;96171.56;;;9.45;100.00
8061;BME280;4073;42.626;25.386;2022-11-24T02:02:37;96157.41;;;9.26;100.00
8061;BME280;4073;42.626;25.386;2022-11-24T02:05:08;96178.53;;;9.41;100.00
8061;BME280;4073;42.626;25.386;2022-11-24T02:07:35;96180.19;;;9.37;100.00
8061;BME280;4073;42.626;25.386;2022-11-24T02:10:05;96174.94;;;9.32;100.00
8061;BME280;4073;42.626;25.386;2022-11-24T02:12:33;96177.22;;;9.20;100.00
8061;BME280;4073;42.626;25.386;2022-11-24T02:14:59;96176.72;;;9.18;100.00
8061;BME280;4073;42.626;25.386;2022-11-24T02:17:25;96176.00;;;9.12;100.00
8061;BME280;4073;42.626;25.386;2022-11-24T02:19:56;96171.84;;;9.01;100.00
8061;BME280;4073;42.626;25.386;2022-11-24T02:27:44;96140.16;;;8.76;100.00
8061;BME280;4073;42.626;25.386;2022-11-24T02:30:10;96165.91;;;8.86;100.00
8061;BME280;4073;42.626;25.386;2022-11-24T02:32:38;96141.66;;;8.64;100.00
8061;BME280;4073;42.626;25.386;2022-11-24T02:35:05;96163.63;;;8.74;100.00
8061;BME280;4073;42.626;25.386;2022-11-24T02:37:31;96166.09;;;8.71;100.00
8061;BME280;4073;42.626;25.386;2022-11-24T02:39:57;96163.75;;;8.64;100.00
8061;BME280;4073;42.626;25.386;2022-11-24T02:42:22;96174.69;;;8.63;100.00
8061;BME280;4073;42.626;25.386;2022-11-24T02:44:53;96171.28;;;8.57;100.00
8061;BME280;4073;42.626;25.386;2022-11-24T02:47:19;96169.47;;;8.53;100.00
8061;BME280;4073;42.626;25.386;2022-11-24T02:49:45;96171.06;;;8.54;100.00
8061;BME280;4073;42.626;25.386;2022-11-24T02:52:10;96166.22;;;8.56;100.00
8061;BME280;4073;42.626;25.386;2022-11-24T02:54:35;96160.13;;;8.55;100.00
8061;BME280;4073;42.626;25.386;2022-11-24T02:57:01;96169.41;;;8.58;100.00
8061;BME280;4073;42.626;25.386;2022-11-24T02:59:27;96145.63;;;8.43;100.00
8061;BME280;4073;42.626;25.386;2022-11-24T03:01:52;96159.03;;;8.56;100.00
8061;BME280;4073;42.626;25.386;2022-11-24T03:04:17;96140.84;;;8.40;100.00
8061;BME280;4073;42.626;25.386;2022-11-24T03:06:43;96159.84;;;8.57;100.00
8061;BME280;4073;42.626;25.386;2022-11-24T03:09:09;96159.84;;;8.57;100.00
8061;BME280;4073;42.626;25.386;2022-11-24T03:11:36;96132.00;;;8.44;100.00
8061;BME280;4073;42.626;25.386;2022-11-24T03:14:03;96177.34;;;8.63;100.00
8061;BME280;4073;42.626;25.386;2022-11-24T03:16:28;96164.91;;;8.58;100.00
8061;BME280;4073;42.626;25.386;2022-11-24T03:18:54;96137.13;;;8.36;100.00
8061;BME280;4073;42.626;25.386;2022-11-24T03:21:19;96173.22;;;8.52;100.00
8061;BME280;4073;42.626;25.386;2022-11-24T03:23:45;96161.81;;;8.46;100.00
8061;BME280;4073;42.626;25.386;2022-11-24T03:26:13;96173.38;;;8.37;100.00
8061;BME280;4073;42.626;25.386;2022-11-24T03:28:39;96149.56;;;8.17;100.00
8061;BME280;4073;42.626;25.386;2022-11-24T03:31:06;96152.25;;;8.12;100.00
8061;BME280;4073;42.626;25.386;2022-11-24T03:33:32;96176.63;;;8.29;100.00
8061;BME280;4073;42.626;25.386;2022-11-24T03:35:58;96165.09;;;8.04;100.00
8061;BME280;4073;42.626;25.386;2022-11-24T03:38:23;96185.81;;;8.13;100.00
8061;BME280;4073;42.626;25.386;2022-11-24T03:40:49;96183.47;;;8.06;100.00
8061;BME280;4073;42.626;25.386;2022-11-24T03:43:14;96158.91;;;7.80;100.00
8061;BME280;4073;42.626;25.386;2022-11-24T03:45:44;96199.03;;;7.89;100.00
8061;BME280;4073;42.626;25.386;2022-11-24T03:48:09;96187.41;;;7.80;100.00
8061;BME280;4073;42.626;25.386;2022-11-24T03:50:35;96153.53;;;7.52;100.00
8061;BME280;4073;42.626;25.386;2022-11-24T03:53:00;96179.44;;;7.75;100.00
8061;BME280;4073;42.626;25.386;2022-11-24T03:55:26;96184.81;;;7.70;100.00
8061;BME280;4073;42.626;25.386;2022-11-24T03:57:51;96185.91;;;7.64;100.00
8061;BME280;4073;42.626;25.386;2022-11-24T04:00:16;96192.53;;;7.66;100.00
8061;BME280;4073;42.626;25.386;2022-11-24T04:02:42;96195.75;;;7.63;100.00
8061;BME280;4073;42.626;25.386;2022-11-24T04:05:07;96168.25;;;7.39;100.00
8061;BME280;4073;42.626;25.386;2022-11-24T04:07:33;96175.19;;;7.30;100.00
8061;BME280;4073;42.626;25.386;2022-11-24T04:09:59;96198.50;;;7.48;100.00
8061;BME280;4073;42.626;25.386;2022-11-24T04:12:24;96199.38;;;7.39;100.00
8061;BME280;4073;42.626;25.386;2022-11-24T04:15:09;96196.72;;;7.34;100.00
8061;BME280;4073;42.626;25.386;2022-11-24T04:17:35;96202.09;;;7.29;100.00
8061;BME280;4073;42.626;25.386;2022-11-24T04:20:01;96203.19;;;7.23;100.00
8061;BME280;4073;42.626;25.386;2022-11-24T04:22:27;96207.72;;;7.17;100.00
8061;BME280;4073;42.626;25.386;2022-11-24T04:24:52;96202.41;;;7.12;100.00
8061;BME280;4073;42.626;25.386;2022-11-24T04:27:18;96211.75;;;7.10;100.00
8061;BME280;4073;42.626;25.386;2022-11-24T04:29:43;96216.28;;;7.04;100.00
8061;BME280;4073;42.626;25.386;2022-11-24T04:32:09;96184.22;;;6.81;100.00
8061;BME280;4073;42.626;25.386;2022-11-24T04:34:34;96230.66;;;6.98;100.00
8061;BME280;4073;42.626;25.386;2022-11-24T04:37:00;96219.53;;;6.81;100.00
8061;BME280;4073;42.626;25.386;2022-11-24T04:39:25;96220.09;;;6.68;100.00
8061;BME280;4073;42.626;25.386;2022-11-24T04:41:51;96193.88;;;6.42;100.00
8061;BME280;4073;42.626;25.386;2022-11-24T04:44:16;96240.31;;;6.54;100.00
8061;BME280;4073;42.626;25.386;2022-11-24T04:46:42;96196.28;;;6.28;100.00
8061;BME280;4073;42.626;25.386;2022-11-24T04:49:07;96205.06;;;6.09;100.00
8061;BME280;4073;42.626;25.386;2022-11-24T04:51:37;96230.78;;;6.28;100.00
8061;BME280;4073;42.626;25.386;2022-11-24T04:54:03;96226.00;;;6.35;100.00
8061;BME280;4073;42.626;25.386;2022-11-24T04:56:29;96217.81;;;6.22;100.00
8061;BME280;4073;42.626;25.386;2022-11-24T04:58:54;96239.00;;;6.37;100.00
8061;BME280;4073;42.626;25.386;2022-11-24T05:01:19;96220.72;;;6.20;100.00
8061;BME280;4073;42.626;25.386;2022-11-24T05:03:45;96208.50;;;6.24;100.00
8061;BME280;4073;42.626;25.386;2022-11-24T05:06:10;96234.78;;;6.36;100.00
8061;BME280;4073;42.626;25.386;2022-11-24T05:08:36;96221.50;;;6.16;100.00
8061;BME280;4073;42.626;25.386;2022-11-24T05:11:05;96246.72;;;6.28;100.00
8061;BME280;4073;42.626;25.386;2022-11-24T05:13:31;96248.31;;;6.19;100.00
8061;BME280;4073;42.626;25.386;2022-11-24T05:15:56;96209.06;;;5.91;100.00
8061;BME280;4073;42.626;25.386;2022-11-24T05:18:23;96256.03;;;6.11;100.00
8061;BME280;4073;42.626;25.386;2022-11-24T05:20:49;96248.84;;;6.11;100.00
8061;BME280;4073;42.626;25.386;2022-11-24T05:23:14;96253.38;;;6.11;100.00
8061;BME280;4073;42.626;25.386;2022-11-24T05:25:40;96251.25;;;6.08;100.00
8061;BME280;4073;42.626;25.386;2022-11-24T05:28:07;96228.16;;;5.88;100.00
8061;BME280;4073;42.626;25.386;2022-11-24T05:30:37;96232.13;;;5.96;100.00
8061;BME280;4073;42.626;25.386;2022-11-24T05:33:07;96253.09;;;6.12;100.00
8061;BME280;4073;42.626;25.386;2022-11-24T05:35:33;96249.38;;;6.13;100.00
8061;BME280;4073;42.626;25.386;2022-11-24T05:37:59;96260.25;;;6.12;100.00
8061;BME280;4073;42.626;25.386;2022-11-24T05:40:25;96251.50;;;6.11;100.00
8061;BME280;4073;42.626;25.386;2022-11-24T05:42:50;96227.88;;;5.95;100.00
8061;BME280;4073;42.626;25.386;2022-11-24T05:45:18;96260.25;;;6.22;100.00
8061;BME280;4073;42.626;25.386;2022-11-24T05:47:44;96265.31;;;6.23;100.00
8061;BME280;4073;42.626;25.386;2022-11-24T05:50:12;96263.19;;;6.30;100.00
8061;BME280;4073;42.626;25.386;2022-11-24T05:52:38;96266.13;;;6.34;100.00
8061;BME280;4073;42.626;25.386;2022-11-24T05:55:05;96275.13;;;6.48;100.00
8061;BME280;4073;42.626;25.386;2022-11-24T05:57:31;96273.00;;;6.55;100.00
8061;BME280;4073;42.626;25.386;2022-11-24T05:59:57;96252.25;;;6.62;100.00
8061;BME280;4073;42.626;25.386;2022-11-24T06:02:22;96259.78;;;7.28;100.00
8061;BME280;4073;42.626;25.386;2022-11-24T06:04:48;96266.13;;;8.87;100.00
8061;BME280;4073;42.626;25.386;2022-11-24T06:07:13;96259.13;;;10.49;100.00
8061;BME280;4073;42.626;25.386;2022-11-24T06:09:40;96292.19;;;12.42;100.00
8061;BME280;4073;42.626;25.386;2022-11-24T06:12:06;96304.97;;;13.90;100.00
8061;BME280;4073;42.626;25.386;2022-11-24T06:14:32;96305.47;;;15.02;95.12
8061;BME280;4073;42.626;25.386;2022-11-24T06:16:58;96306.66;;;15.77;68.47
8061;BME280;4073;42.626;25.386;2022-11-24T06:19:23;96306.38;;;16.69;62.89
8061;BME280;4073;42.626;25.386;2022-11-24T06:21:49;96302.91;;;16.68;62.33
8061;BME280;4073;42.626;25.386;2022-11-24T06:24:14;96304.59;;;17.05;60.39
8061;BME280;4073;42.626;25.386;2022-11-24T06:26:40;96293.59;;;17.22;59.52
8061;BME280;4073;42.626;25.386;2022-11-24T06:29:06;96316.78;;;18.04;57.23
8061;BME280;4073;42.626;25.386;2022-11-24T06:31:32;96323.59;;;18.62;55.22
8061;BME280;4073;42.626;25.386;2022-11-24T06:33:58;96315.81;;;19.00;54.24
8061;BME280;4073;42.626;25.386;2022-11-24T06:36:23;96327.06;;;19.02;53.77
8061;BME280;4073;42.626;25.386;2022-11-24T06:38:50;96313.13;;;19.58;53.01
8061;BME280;4073;42.626;25.386;2022-11-24T06:41:16;96316.84;;;20.31;50.20
8061;BME280;4073;42.626;25.386;2022-11-24T06:43:42;96318.94;;;21.11;49.17
8061;BME280;4073;42.626;25.386;2022-11-24T06:46:08;96309.94;;;21.48;47.43
8061;BME280;4073;42.626;25.386;2022-11-24T06:48:33;96321.97;;;21.47;47.04
8061;BME280;4073;42.626;25.386;2022-11-24T06:51:05;96325.84;;;21.91;46.23
8061;BME280;4073;42.626;25.386;2022-11-24T06:53:32;96334.91;;;21.73;46.08
8061;BME280;4073;42.626;25.386;2022-11-24T06:55:58;96330.63;;;21.98;46.19
8061;BME280;4073;42.626;25.386;2022-11-24T06:58:24;96339.53;;;22.43;45.05
8061;BME280;4073;42.626;25.386;2022-11-24T07:00:50;96345.09;;;22.77;44.32
8061;BME280;4073;42.626;25.386;2022-11-24T07:03:16;96351.66;;;22.75;43.98
8061;BME280;4073;42.626;25.386;2022-11-24T07:05:43;96343.81;;;23.30;42.46
8061;BME280;4073;42.626;25.386;2022-11-24T07:08:09;96321.38;;;23.14;42.33
8061;BME280;4073;42.626;25.386;2022-11-24T07:10:34;96327.25;;;23.16;41.67
8061;BME280;4073;42.626;25.386;2022-11-24T07:13:00;96347.31;;;23.63;41.51
8061;BME280;4073;42.626;25.386;2022-11-24T07:15:28;96341.00;;;23.96;41.58
8061;BME280;4073;42.626;25.386;2022-11-24T07:17:54;96338.59;;;24.34;39.98
8061;BME280;4073;42.626;25.386;2022-11-24T07:20:19;96336.31;;;25.15;37.81
8061;BME280;4073;42.626;25.386;2022-11-24T07:22:45;96319.25;;;25.39;36.95
8061;BME280;4073;42.626;25.386;2022-11-24T07:25:10;96334.56;;;25.72;36.41
8061;BME280;4073;42.626;25.386;2022-11-24T07:27:38;96372.50;;;27.03;34.28
8061;BME280;4073;42.626;25.386;2022-11-24T07:30:04;96354.50;;;27.88;32.45
8061;BME280;4073;42.626;25.386;2022-11-24T07:32:29;96352.78;;;28.59;31.20
8061;BME280;4073;42.626;25.386;2022-11-24T07:34:55;96324.13;;;28.57;30.88
8061;BME280;4073;42.626;25.386;2022-11-24T07:37:20;96333.66;;;29.53;29.61
8061;BME280;4073;42.626;25.386;2022-11-24T07:39:45;96355.28;;;28.84;30.54
8061;BME280;4073;42.626;25.386;2022-11-24T07:42:11;96356.41;;;28.49;31.02
8061;BME280;4073;42.626;25.386;2022-11-24T07:44:36;96360.97;;;27.50;32.80
8061;BME280;4073;42.626;25.386;2022-11-24T07:47:02;96347.75;;;27.13;33.19
8061;BME280;4073;42.626;25.386;2022-11-24T07:49:28;96354.97;;;26.69;33.27
8061;BME280;4073;42.626;25.386;2022-11-24T07:51:53;96347.50;;;26.59;34.31
8061;BME280;4073;42.626;25.386;2022-11-24T07:54:18;96338.91;;;26.11;34.57
8061;BME280;4073;42.626;25.386;2022-11-24T07:56:47;96348.69;;;27.72;32.44
8061;BME280;4073;42.626;25.386;2022-11-24T07:59:12;96350.81;;;27.40;33.12
8061;BME280;4073;42.626;25.386;2022-11-24T08:01:37;96338.47;;;28.31;31.41
8061;BME280;4073;42.626;25.386;2022-11-24T08:04:03;96324.69;;;28.38;31.33
8061;BME280;4073;42.626;25.386;2022-11-24T08:06:29;96347.09;;;29.14;30.38
8061;BME280;4073;42.626;25.386;2022-11-24T08:08:55;96320.78;;;28.76;30.63
8061;BME280;4073;42.626;25.386;2022-11-24T08:11:21;96343.94;;;29.15;30.37
8061;BME280;4073;42.626;25.386;2022-11-24T08:13:49;96341.25;;;29.42;30.17
8061;BME280;4073;42.626;25.386;2022-11-24T08:16:16;96347.34;;;29.60;29.72
8061;BME280;4073;42.626;25.386;2022-11-24T08:18:42;96328.59;;;29.78;28.93
8061;BME280;4073;42.626;25.386;2022-11-24T08:21:12;96343.06;;;29.86;29.01
8061;BME280;4073;42.626;25.386;2022-11-24T08:23:38;96326.66;;;29.45;29.19
8061;BME280;4073;42.626;25.386;2022-11-24T08:26:05;96337.94;;;29.84;29.18
8061;BME280;4073;42.626;25.386;2022-11-24T08:28:33;96346.72;;;29.45;29.36
8061;BME280;4073;42.626;25.386;2022-11-24T08:31:17;96341.44;;;29.28;29.96
8061;BME280;4073;42.626;25.386;2022-11-24T08:33:43;96341.16;;;30.32;28.64
8061;BME280;4073;42.626;25.386;2022-11-24T08:36:10;96337.34;;;29.39;29.93
8061;BME280;4073;42.626;25.386;2022-11-24T08:38:37;96335.97;;;29.24;29.90
8061;BME280;4073;42.626;25.386;2022-11-24T08:41:13;96330.00;;;29.63;29.31
8061;BME280;4073;42.626;25.386;2022-11-24T08:43:39;96328.13;;;29.23;30.32
8061;BME280;4073;42.626;25.386;2022-11-24T08:46:08;96315.75;;;30.21;28.82
8061;BME280;4073;42.626;25.386;2022-11-24T08:48:34;96326.88;;;29.88;29.46
8061;BME280;4073;42.626;25.386;2022-11-24T08:51:06;96330.72;;;29.67;30.05
8061;BME280;4073;42.626;25.386;2022-11-24T08:53:32;96335.28;;;30.30;28.79
8061;BME280;4073;42.626;25.386;2022-11-24T08:56:01;96336.66;;;28.98;31.23
8061;BME280;4073;42.626;25.386;2022-11-24T08:58:28;96339.28;;;26.73;34.87
8061;BME280;4073;42.626;25.386;2022-11-24T09:00:53;96324.41;;;24.76;38.41
8061;BME280;4073;42.626;25.386;2022-11-24T09:03:19;96346.38;;;23.52;41.74
8061;BME280;4073;42.626;25.386;2022-11-24T09:05:44;96321.25;;;22.18;45.00
8061;BME280;4073;42.626;25.386;2022-11-24T09:08:10;96333.72;;;21.32;48.84
8061;BME280;4073;42.626;25.386;2022-11-24T09:10:35;96317.50;;;20.98;49.66
8061;BME280;4073;42.626;25.386;2022-11-24T09:13:01;96338.88;;;20.99;52.00
8061;BME280;4073;42.626;25.386;2022-11-24T09:15:26;96318.69;;;20.81;51.33
8061;BME280;4073;42.626;25.386;2022-11-24T09:17:52;96330.09;;;21.06;52.13
8061;BME280;4073;42.626;25.386;2022-11-24T09:20:17;96305.19;;;20.66;52.90
8061;BME280;4073;42.626;25.386;2022-11-24T09:22:43;96335.00;;;20.12;55.39
8061;BME280;4073;42.626;25.386;2022-11-24T09:25:09;96322.47;;;19.18;57.88
8061;BME280;4073;42.626;25.386;2022-11-24T09:27:35;96316.41;;;18.54;60.25
8061;BME280;4073;42.626;25.386;2022-11-24T09:30:01;96335.38;;;18.18;62.49
8061;BME280;4073;42.626;25.386;2022-11-24T09:32:28;96334.50;;;17.77;62.96
8061;BME280;4073;42.626;25.386;2022-11-24T09:34:54;96329.91;;;17.01;61.55
8061;BME280;4073;42.626;25.386;2022-11-24T09:37:20;96323.09;;;16.62;62.08
8061;BME280;4073;42.626;25.386;2022-11-24T09:39:45;96320.91;;;16.06;60.32
8061;BME280;4073;42.626;25.386;2022-11-24T09:42:43;96310.69;;;15.62;61.42
8061;BME280;4073;42.626;25.386;2022-11-24T09:48:07;96297.28;;;15.45;63.70
8061;BME280;4073;42.626;25.386;2022-11-24T09:50:37;96286.88;;;15.73;61.43
8061;BME280;4073;42.626;25.386;2022-11-24T09:53:28;96293.94;;;15.86;61.16
8061;BME280;4073;42.626;25.386;2022-11-24T09:55:58;96283.22;;;15.98;60.11
8061;BME280;4073;42.626;25.386;2022-11-24T10:01:15;96285.31;;;16.21;57.97
8061;BME280;4073;42.626;25.386;2022-11-24T10:03:44;96281.91;;;16.04;58.25
8061;BME280;4073;42.626;25.386;2022-11-24T10:06:34;96294.47;;;16.00;59.75
8061;BME280;4073;42.626;25.386;2022-11-24T10:19:47;96279.38;;;17.46;54.90
8061;BME280;4073;42.626;25.386;2022-11-24T10:22:41;96280.09;;;16.78;56.96
8061;BME280;4073;42.626;25.386;2022-11-24T10:28:02;96286.38;;;16.49;58.63
8061;BME280;4073;42.626;25.386;2022-11-24T10:30:29;96264.94;;;16.03;59.60
8061;BME280;4073;42.626;25.386;2022-11-24T10:33:20;96293.56;;;15.96;59.96
8061;BME280;4073;42.626;25.386;2022-11-24T10:36:06;96287.03;;;15.68;61.88
8061;BME280;4073;42.626;25.386;2022-11-24T10:38:41;96286.78;;;15.52;61.64
8061;BME280;4073;42.626;25.386;2022-11-24T10:41:23;96236.94;;;14.91;61.33
8061;BME280;4073;42.626;25.386;2022-11-24T10:43:51;96271.16;;;14.82;62.96
8061;BME280;4073;42.626;25.386;2022-11-24T10:46:26;96269.78;;;14.59;62.49
8061;BME280;4073;42.626;25.386;2022-11-24T10:48:56;96303.47;;;14.57;63.33
8061;BME280;4073;42.626;25.386;2022-11-24T10:51:52;96297.63;;;14.55;63.29
8061;BME280;4073;42.626;25.386;2022-11-24T10:54:22;96299.19;;;14.56;62.43
8061;BME280;4073;42.626;25.386;2022-11-24T10:56:52;96265.19;;;14.43;61.11
8061;BME280;4073;42.626;25.386;2022-11-24T10:59:27;96295.69;;;14.64;62.40
8061;BME280;4073;42.626;25.386;2022-11-24T11:01:54;96302.69;;;14.73;62.22
8061;BME280;4073;42.626;25.386;2022-11-24T11:04:30;96302.50;;;14.78;60.93
8061;BME280;4073;42.626;25.386;2022-11-24T11:09:40;96275.44;;;14.83;60.80
8061;BME280;4073;42.626;25.386;2022-11-24T11:12:11;96298.81;;;15.00;61.48
8061;BME280;4073;42.626;25.386;2022-11-24T11:14:44;96309.09;;;14.98;59.71
8061;BME280;4073;42.626;25.386;2022-11-24T11:17:33;96305.00;;;15.00;60.89
8061;BME280;4073;42.626;25.386;2022-11-24T11:20:26;96303.69;;;15.15;60.24
8061;BME280;4073;42.626;25.386;2022-11-24T11:22:52;96293.88;;;15.19;61.68
8061;BME280;4073;42.626;25.386;2022-11-24T11:27:44;96305.41;;;15.19;60.93
8061;BME280;4073;42.626;25.386;2022-11-24T11:30:18;96308.31;;;15.06;61.55
8061;BME280;4073;42.626;25.386;2022-11-24T11:32:59;96317.81;;;15.12;62.46
8061;BME280;4073;42.626;25.386;2022-11-24T11:35:31;96320.47;;;15.29;67.93
8061;BME280;4073;42.626;25.386;2022-11-24T11:37:59;96329.63;;;15.36;68.13
8061;BME280;4073;42.626;25.386;2022-11-24T11:40:28;96326.47;;;15.34;68.15
8061;BME280;4073;42.626;25.386;2022-11-24T11:45:55;96335.56;;;15.04;69.84
8061;BME280;4073;42.626;25.386;2022-11-24T11:48:34;96345.84;;;14.77;71.08
8061;BME280;4073;42.626;25.386;2022-11-24T11:54:29;96352.81;;;14.44;71.72
8061;BME280;4073;42.626;25.386;2022-11-24T12:10:42;96345.31;;;13.59;75.24
8061;BME280;4073;42.626;25.386;2022-11-24T12:21:39;96361.28;;;13.56;75.75
8061;BME280;4073;42.626;25.386;2022-11-24T12:26:48;96332.84;;;13.24;77.85
8061;BME280;4073;42.626;25.386;2022-11-24T12:29:40;96355.44;;;13.32;78.66
8061;BME280;4073;42.626;25.386;2022-11-24T12:34:58;96359.50;;;13.21;78.48
8061;BME280;4073;42.626;25.386;2022-11-24T12:43:12;96365.28;;;12.92;80.34
8061;BME280;4073;42.626;25.386;2022-11-24T12:48:55;96361.94;;;12.86;82.04
8061;BME280;4073;42.626;25.386;2022-11-24T12:51:30;96370.28;;;12.85;82.92
8061;BME280;4073;42.626;25.386;2022-11-24T12:53:58;96369.13;;;12.77;82.35
8061;BME280;4073;42.626;25.386;2022-11-24T12:59:23;96364.47;;;12.69;82.62
8061;BME280;4073;42.626;25.386;2022-11-24T13:04:51;96369.78;;;12.61;83.23
8061;BME280;4073;42.626;25.386;2022-11-24T13:07:42;96366.91;;;12.57;83.08
8061;BME280;4073;42.626;25.386;2022-11-24T13:12:54;96380.63;;;12.56;84.07
8061;BME280;4073;42.626;25.386;2022-11-24T13:15:19;96379.66;;;12.52;84.41
8061;BME280;4073;42.626;25.386;2022-11-24T13:17:45;96353.69;;;12.25;85.09
8061;BME280;4073;42.626;25.386;2022-11-24T13:22:51;96382.22;;;12.43;85.10
8061;BME280;4073;42.626;25.386;2022-11-24T13:25:25;96380.94;;;12.41;84.95
8061;BME280;4073;42.626;25.386;2022-11-24T13:27:53;96375.22;;;12.34;84.72
8061;BME280;4073;42.626;25.386;2022-11-24T13:35:40;96379.50;;;12.21;84.87
8061;BME280;4073;42.626;25.386;2022-11-24T13:41:03;96371.69;;;12.11;85.62
8061;BME280;4073;42.626;25.386;2022-11-24T13:43:28;96364.38;;;12.03;85.58
8061;BME280;4073;42.626;25.386;2022-11-24T13:45:54;96363.06;;;12.01;85.88
8061;BME280;4073;42.626;25.386;2022-11-24T13:53:44;96378.63;;;11.85;88.42
8061;BME280;4073;42.626;25.386;2022-11-24T13:58:56;96378.75;;;11.80;89.42
8061;BME280;4073;42.626;25.386;2022-11-24T14:01:29;96379.84;;;11.79;89.39
8061;BME280;4073;42.626;25.386;2022-11-24T14:08:55;96365.53;;;11.43;90.99
8061;BME280;4073;42.626;25.386;2022-11-24T14:11:21;96373.44;;;11.48;91.50
8061;BME280;4073;42.626;25.386;2022-11-24T14:13:47;96394.09;;;11.61;91.24
8061;BME280;4073;42.626;25.386;2022-11-24T14:16:19;96388.25;;;11.59;91.94
8061;BME280;4073;42.626;25.386;2022-11-24T14:18:47;96385.34;;;11.42;94.18
8061;BME280;4073;42.626;25.386;2022-11-24T14:23:47;96392.22;;;11.62;93.16
8061;BME280;4073;42.626;25.386;2022-11-24T14:26:20;96368.19;;;11.43;92.05
8061;BME280;4073;42.626;25.386;2022-11-24T14:28:46;96372.81;;;11.24;93.56
8061;BME280;4073;42.626;25.386;2022-11-24T14:31:23;96397.53;;;11.48;93.59
8061;BME280;4073;42.626;25.386;2022-11-24T14:34:11;96406.00;;;11.55;92.42
8061;BME280;4073;42.626;25.386;2022-11-24T14:36:40;96385.06;;;11.44;91.03
8061;BME280;4073;42.626;25.386;2022-11-24T14:39:10;96375.41;;;11.43;90.58
8061;BME280;4073;42.626;25.386;2022-11-24T14:41:36;96395.47;;;11.45;90.33
8061;BME280;4073;42.626;25.386;2022-11-24T14:44:15;96411.63;;;11.54;90.37
8061;BME280;4073;42.626;25.386;2022-11-24T14:46:42;96413.50;;;11.53;91.34
8061;BME280;4073;42.626;25.386;2022-11-24T14:49:08;96413.22;;;11.55;91.35
8061;BME280;4073;42.626;25.386;2022-11-24T14:51:35;96417.47;;;11.56;92.11
8061;BME280;4073;42.626;25.386;2022-11-24T14:54:17;96416.06;;;11.45;91.49
8061;BME280;4073;42.626;25.386;2022-11-24T14:57:02;96425.31;;;11.52;91.83
8061;BME280;4073;42.626;25.386;2022-11-24T14:59:34;96432.94;;;11.45;91.71
8061;BME280;4073;42.626;25.386;2022-11-24T15:02:01;96443.00;;;11.35;92.36
8061;BME280;4073;42.626;25.386;2022-11-24T15:04:30;96458.25;;;11.34;93.89
8061;BME280;4073;42.626;25.386;2022-11-24T15:09:48;96444.97;;;11.29;92.84